Time;durP1;ratioP1;P1;durP2;ratioP2;P2;SDS_P1;SDS_P2;PMS_P1;PMS_P2;Temp;Humidity;BMP_temperature;BMP_pressure;BME280_temperature;BME280_humidity;BME280_pressure;Samples;Min_cycle;Max_cycle;Signal;HPM_P1;HPM_P2
2022/06/22 00:01:03;;;;;;;1.20;1.10;;;;;;;;;;5032108;28;20226;-78
2022/06/22 00:03:32;;;;;;;1.45;0.90;;;;;;;;;;5032003;28;20267;-78
2022/06/22 00:06:00;;;;;;;1.10;1.00;;;;;;;;;;5031614;28;20281;-79
2022/06/22 00:08:31;;;;;;;1.05;1.02;;;;;;;;;;5032181;28;20285;-79
2022/06/22 00:11:03;;;;;;;1.20;1.10;;;;;;;;;;5037343;28;20328;-79
2022/06/22 00:13:35;;;;;;;1.25;1.13;;;;;;;;;;5051339;28;20225;-79
2022/06/22 00:16:07;;;;;;;1.15;1.05;;;;;;;;;;5051835;28;20705;-78
2022/06/22 00:18:38;;;;;;;0.80;0.80;;;;;;;;;;5051177;28;20284;-78
2022/06/22 00:21:17;;;;;;;1.42;1.20;;;;;;;;;;5051804;28;20308;-78
2022/06/22 00:23:48;;;;;;;0.93;0.90;;;;;;;;;;5051383;28;20284;-78
2022/06/22 00:26:33;;;;;;;0.93;0.90;;;;;;;;;;5054494;28;20666;-79
2022/06/22 00:29:24;;;;;;;0.68;0.68;;;;;;;;;;5055304;28;20280;-78
2022/06/22 00:32:17;;;;;;;1.08;0.98;;;;;;;;;;5055507;28;20226;-79
2022/06/22 00:34:44;;;;;;;1.48;1.13;;;;;;;;;;5055820;28;20205;-79
2022/06/22 00:37:18;;;;;;;2.95;1.00;;;;;;;;;;5056003;28;20646;-79
2022/06/22 00:39:48;;;;;;;0.80;0.80;;;;;;;;;;5055788;28;20240;-80
2022/06/22 00:42:30;;;;;;;1.15;1.08;;;;;;;;;;5054933;28;20292;-80
2022/06/22 00:45:06;;;;;;;0.98;0.98;;;;;;;;;;5055654;28;20235;-79
2022/06/22 00:47:36;;;;;;;0.73;0.73;;;;;;;;;;5055493;28;20265;-79
2022/06/22 00:50:15;;;;;;;2.17;0.80;;;;;;;;;;5055372;28;20227;-79
2022/06/22 00:52:47;;;;;;;1.42;1.08;;;;;;;;;;5054843;28;20216;-80
2022/06/22 00:55:27;;;;;;;1.10;1.00;;;;;;;;;;5055139;28;20241;-80
2022/06/22 00:58:00;;;;;;;0.77;0.77;;;;;;;;;;5055241;28;20288;-79
2022/06/22 01:00:33;;;;;;;1.00;1.00;;;;;;;;;;5055282;28;20304;-79
2022/06/22 01:03:06;;;;;;;1.00;0.98;;;;;;;;;;5054736;28;20225;-79
2022/06/22 01:05:38;;;;;;;1.48;0.90;;;;;;;;;;5055253;28;20209;-79
2022/06/22 01:08:11;;;;;;;1.27;1.23;;;;;;;;;;5055388;28;20742;-80
2022/06/22 01:10:46;;;;;;;1.48;1.00;;;;;;;;;;5055159;28;20264;-79
2022/06/22 01:13:22;;;;;;;1.38;1.02;;;;;;;;;;5054841;28;20224;-79
2022/06/22 01:15:56;;;;;;;1.75;1.23;;;;;;;;;;5054913;28;20205;-79
2022/06/22 01:18:28;;;;;;;1.10;1.00;;;;;;;;;;5054705;28;20292;-78
2022/06/22 01:21:02;;;;;;;2.28;1.20;;;;;;;;;;5054810;28;20225;-79
2022/06/22 01:23:48;;;;;;;1.20;1.10;;;;;;;;;;5054684;28;20292;-80
2022/06/22 01:26:44;;;;;;;1.00;1.00;;;;;;;;;;5054776;28;20619;-79
2022/06/22 01:29:16;;;;;;;0.77;0.77;;;;;;;;;;5041358;28;20288;-79
2022/06/22 01:31:51;;;;;;;1.48;0.95;;;;;;;;;;5054650;28;20221;-78
2022/06/22 01:34:20;;;;;;;1.08;0.98;;;;;;;;;;5054811;28;20642;-78
2022/06/22 01:36:47;;;;;;;0.98;0.98;;;;;;;;;;5053553;28;20689;-78
2022/06/22 01:39:15;;;;;;;1.33;1.30;;;;;;;;;;5053894;28;20200;-78
2022/06/22 01:41:48;;;;;;;1.55;1.38;;;;;;;;;;5041912;28;20324;-79
2022/06/22 01:44:23;;;;;;;1.88;1.58;;;;;;;;;;5034431;28;20237;-79
2022/06/22 01:47:26;;;;;;;1.60;1.02;;;;;;;;;;5034156;28;20308;-79
2022/06/22 01:50:04;;;;;;;1.10;1.00;;;;;;;;;;5034130;28;20314;-78
2022/06/22 01:52:50;;;;;;;2.22;1.00;;;;;;;;;;5033802;28;20793;-78
2022/06/22 01:55:30;;;;;;;1.27;0.90;;;;;;;;;;5033866;28;20237;-78
2022/06/22 01:58:05;;;;;;;1.55;1.20;;;;;;;;;;5034146;28;20256;-78
2022/06/22 02:00:34;;;;;;;1.95;1.10;;;;;;;;;;5034279;28;20705;-78
2022/06/22 02:03:11;;;;;;;1.02;0.98;;;;;;;;;;5033375;28;20234;-78
2022/06/22 02:05:46;;;;;;;1.25;1.10;;;;;;;;;;5034198;28;20573;-78
2022/06/22 02:08:18;;;;;;;1.05;1.05;;;;;;;;;;5033968;28;20657;-79
2022/06/22 02:10:50;;;;;;;1.35;1.25;;;;;;;;;;5038043;28;20232;-79
2022/06/22 02:13:29;;;;;;;0.85;0.85;;;;;;;;;;5053634;28;20706;-79
2022/06/22 02:16:07;;;;;;;1.30;1.02;;;;;;;;;;5054412;28;20206;-78
2022/06/22 02:18:39;;;;;;;0.93;0.93;;;;;;;;;;5053979;28;20202;-79
2022/06/22 02:21:21;;;;;;;1.50;1.10;;;;;;;;;;5053482;28;20222;-78
2022/06/22 02:23:55;;;;;;;1.27;1.10;;;;;;;;;;5053327;28;20202;-79
2022/06/22 02:26:29;;;;;;;0.90;0.90;;;;;;;;;;5053680;28;20584;-78
2022/06/22 02:28:57;;;;;;;2.03;0.98;;;;;;;;;;5053120;28;20293;-79
2022/06/22 02:31:26;;;;;;;3.67;1.90;;;;;;;;;;5053548;28;20308;-79
2022/06/22 02:33:56;;;;;;;1.10;1.00;;;;;;;;;;5052803;28;20335;-78
2022/06/22 02:36:27;;;;;;;1.70;1.38;;;;;;;;;;5053576;28;20281;-79
2022/06/22 02:38:55;;;;;;;1.10;1.10;;;;;;;;;;5053430;28;20682;-79
2022/06/22 02:44:33;;;;;;;1.35;1.10;;;;;;;;;;5053269;28;20201;-78
2022/06/22 02:47:19;;;;;;;1.05;1.00;;;;;;;;;;5053173;28;20732;-78
2022/06/22 02:49:51;;;;;;;0.80;0.80;;;;;;;;;;5052970;28;20578;-78
2022/06/22 02:52:19;;;;;;;1.33;1.13;;;;;;;;;;5052545;28;20206;-78
2022/06/22 02:54:49;;;;;;;1.10;1.10;;;;;;;;;;5052703;28;20652;-77
2022/06/22 02:57:23;;;;;;;1.23;1.10;;;;;;;;;;5052569;28;20642;-79
2022/06/22 02:59:51;;;;;;;1.15;1.05;;;;;;;;;;5052873;28;20308;-78
2022/06/22 03:02:23;;;;;;;1.67;1.10;;;;;;;;;;5052369;28;20292;-78
2022/06/22 03:04:52;;;;;;;1.10;1.00;;;;;;;;;;5052783;28;20197;-78
2022/06/22 03:07:21;;;;;;;1.08;1.08;;;;;;;;;;5052226;28;20201;-78
2022/06/22 03:09:49;;;;;;;1.67;1.27;;;;;;;;;;5052608;28;20620;-78
2022/06/22 03:12:16;;;;;;;2.45;1.63;;;;;;;;;;5062045;22;20296;-80
2022/06/22 03:14:53;;;;;;;1.60;1.50;;;;;;;;;;5050208;28;20229;-79
2022/06/22 03:17:27;;;;;;;1.33;1.33;;;;;;;;;;5052656;28;20592;-77
2022/06/22 03:20:00;;;;;;;2.17;1.35;;;;;;;;;;5052639;28;20225;-78
2022/06/22 03:22:32;;;;;;;1.50;1.30;;;;;;;;;;5051613;28;20209;-78
2022/06/22 03:25:05;;;;;;;1.40;1.30;;;;;;;;;;5052132;28;20223;-78
2022/06/22 03:27:39;;;;;;;1.40;1.30;;;;;;;;;;5058404;22;20228;-78
2022/06/22 03:30:13;;;;;;;1.65;1.40;;;;;;;;;;5051433;28;20221;-78
2022/06/22 03:32:46;;;;;;;1.15;1.05;;;;;;;;;;5051127;28;20201;-77
2022/06/22 03:35:20;;;;;;;1.48;1.38;;;;;;;;;;5052017;28;20777;-77
2022/06/22 03:37:53;;;;;;;1.23;1.17;;;;;;;;;;5051918;28;20316;-78
2022/06/22 03:40:25;;;;;;;1.67;1.05;;;;;;;;;;5052120;28;20202;-77
2022/06/22 03:43:04;;;;;;;1.23;1.20;;;;;;;;;;5059984;28;20185;-77
2022/06/22 03:45:36;;;;;;;1.45;1.30;;;;;;;;;;5070714;28;20700;-77
2022/06/22 03:48:09;;;;;;;1.30;1.20;;;;;;;;;;5070171;28;20304;-77
2022/06/22 03:50:42;;;;;;;3.63;1.25;;;;;;;;;;5071973;28;20692;-77
2022/06/22 03:53:16;;;;;;;1.42;1.13;;;;;;;;;;5071233;28;20201;-78
2022/06/22 03:55:47;;;;;;;1.95;1.00;;;;;;;;;;5071805;28;20220;-78
2022/06/22 03:58:15;;;;;;;1.38;1.20;;;;;;;;;;5071572;28;20227;-77
2022/06/22 04:00:44;;;;;;;1.13;1.13;;;;;;;;;;5073717;28;20239;-78
2022/06/22 04:03:14;;;;;;;1.13;1.00;;;;;;;;;;5075365;28;20583;-77
2022/06/22 04:05:45;;;;;;;2.15;1.00;;;;;;;;;;5075942;28;20208;-77
2022/06/22 04:08:20;;;;;;;1.20;1.10;;;;;;;;;;5075729;28;20675;-78
2022/06/22 04:10:52;;;;;;;2.38;1.30;;;;;;;;;;5071332;28;20290;-78
2022/06/22 04:13:24;;;;;;;1.00;1.00;;;;;;;;;;5055195;28;20205;-78
2022/06/22 04:15:56;;;;;;;1.40;1.00;;;;;;;;;;5055444;28;20257;-78
2022/06/22 04:18:29;;;;;;;1.08;1.08;;;;;;;;;;5055345;28;20221;-78
2022/06/22 04:21:01;;;;;;;1.67;1.35;;;;;;;;;;5055632;28;20209;-78
2022/06/22 04:23:34;;;;;;;1.42;1.20;;;;;;;;;;5054732;28;20292;-78
2022/06/22 04:26:12;;;;;;;1.38;1.27;;;;;;;;;;5055130;28;20284;-78
2022/06/22 04:28:43;;;;;;;1.13;1.00;;;;;;;;;;5053990;28;20201;-78
2022/06/22 04:31:20;;;;;;;1.40;1.30;;;;;;;;;;5055537;28;20205;-78
2022/06/22 04:33:52;;;;;;;1.33;1.23;;;;;;;;;;5054838;28;20202;-79
2022/06/22 04:36:25;;;;;;;1.65;1.20;;;;;;;;;;5055086;28;20780;-78
2022/06/22 04:38:56;;;;;;;2.63;2.17;;;;;;;;;;5055473;28;20289;-78
2022/06/22 04:41:31;;;;;;;1.83;1.23;;;;;;;;;;5055328;28;20206;-78
2022/06/22 04:44:01;;;;;;;2.42;1.23;;;;;;;;;;5054519;28;20292;-78
2022/06/22 04:46:32;;;;;;;1.83;1.20;;;;;;;;;;5054926;28;20663;-78
2022/06/22 04:49:05;;;;;;;1.08;1.02;;;;;;;;;;5055016;28;20307;-78
2022/06/22 04:51:36;;;;;;;1.52;1.30;;;;;;;;;;5054365;28;20240;-79
2022/06/22 04:54:21;;;;;;;2.25;1.35;;;;;;;;;;5054797;28;20288;-79
2022/06/22 04:56:51;;;;;;;2.33;1.30;;;;;;;;;;5054845;28;20236;-78
2022/06/22 04:59:19;;;;;;;0.90;0.90;;;;;;;;;;5055041;28;20278;-78
2022/06/22 05:01:50;;;;;;;2.15;1.40;;;;;;;;;;5053916;28;20288;-78
2022/06/22 05:04:23;;;;;;;2.55;1.20;;;;;;;;;;5054812;28;20285;-79
2022/06/22 05:06:59;;;;;;;1.20;1.10;;;;;;;;;;5054557;28;20305;-79
2022/06/22 05:09:32;;;;;;;1.27;1.20;;;;;;;;;;5054563;28;20201;-78
2022/06/22 05:12:00;;;;;;;1.95;1.38;;;;;;;;;;5052984;28;20292;-78
2022/06/22 05:14:32;;;;;;;1.10;1.10;;;;;;;;;;5054378;28;20293;-79
2022/06/22 05:17:03;;;;;;;1.70;1.20;;;;;;;;;;5054494;28;20286;-79
2022/06/22 05:19:40;;;;;;;1.40;1.30;;;;;;;;;;5054587;28;20202;-78
2022/06/22 05:22:13;;;;;;;1.05;1.05;;;;;;;;;;5053648;28;20205;-79
2022/06/22 05:24:43;;;;;;;1.88;1.23;;;;;;;;;;5054617;28;20247;-78
2022/06/22 05:27:15;;;;;;;2.95;1.50;;;;;;;;;;5054450;28;20228;-79
2022/06/22 05:29:47;;;;;;;1.40;1.30;;;;;;;;;;5052683;28;20208;-79
2022/06/22 05:32:26;;;;;;;1.30;1.20;;;;;;;;;;5053742;28;20309;-79
2022/06/22 05:34:56;;;;;;;1.92;1.50;;;;;;;;;;5054826;28;20209;-79
2022/06/22 05:37:29;;;;;;;3.65;1.38;;;;;;;;;;5054130;28;20241;-79
2022/06/22 05:39:57;;;;;;;1.65;1.20;;;;;;;;;;5054303;28;20653;-78
2022/06/22 05:42:26;;;;;;;1.88;1.50;;;;;;;;;;5054386;28;20241;-82
2022/06/22 05:44:53;;;;;;;1.52;1.30;;;;;;;;;;5056102;28;20289;-81
2022/06/22 05:47:28;;;;;;;1.55;1.40;;;;;;;;;;5055278;28;20316;-81
2022/06/22 05:50:01;;;;;;;2.15;1.50;;;;;;;;;;5057008;28;20676;-82
2022/06/22 05:52:36;;;;;;;1.90;1.30;;;;;;;;;;5054735;28;20212;-81
2022/06/22 05:55:10;;;;;;;1.80;1.45;;;;;;;;;;5056236;28;20673;-80
2022/06/22 05:57:45;;;;;;;1.33;1.00;;;;;;;;;;5053759;28;20316;-81
2022/06/22 06:00:18;;;;;;;3.03;1.17;;;;;;;;;;5054373;28;20205;-80
2022/06/22 06:02:51;;;;;;;1.30;1.00;;;;;;;;;;5053105;28;20639;-81
2022/06/22 06:05:26;;;;;;;0.95;0.90;;;;;;;;;;5053721;28;20296;-80
2022/06/22 06:07:56;;;;;;;2.00;1.05;;;;;;;;;;5053535;28;20633;-80
2022/06/22 06:10:27;;;;;;;1.13;1.13;;;;;;;;;;5053760;28;20205;-81
2022/06/22 06:12:59;;;;;;;1.35;1.10;;;;;;;;;;5052974;28;20294;-81
2022/06/22 06:15:28;;;;;;;1.20;0.90;;;;;;;;;;5053785;28;20202;-81
2022/06/22 06:17:58;;;;;;;0.80;0.80;;;;;;;;;;5055502;28;20249;-80
2022/06/22 06:20:30;;;;;;;1.10;1.10;;;;;;;;;;5053657;28;20284;-80
2022/06/22 06:23:09;;;;;;;0.85;0.85;;;;;;;;;;5052554;28;20558;-81
2022/06/22 06:28:34;;;;;;;1.00;1.00;;;;;;;;;;5051540;28;20205;-82
2022/06/22 06:31:07;;;;;;;1.08;1.08;;;;;;;;;;5053395;28;20200;-81
2022/06/22 06:33:38;;;;;;;1.23;1.00;;;;;;;;;;5052425;28;20678;-81
2022/06/22 06:36:13;;;;;;;2.28;1.23;;;;;;;;;;5052873;28;20579;-81
2022/06/22 06:38:43;;;;;;;1.00;1.00;;;;;;;;;;5053224;28;20220;-81
2022/06/22 06:41:15;;;;;;;1.60;1.30;;;;;;;;;;5053208;28;20241;-81
2022/06/22 06:43:48;;;;;;;1.23;1.13;;;;;;;;;;5052612;28;20288;-81
2022/06/22 06:46:20;;;;;;;2.33;1.02;;;;;;;;;;5051987;28;20198;-80
2022/06/22 06:48:54;;;;;;;1.48;1.40;;;;;;;;;;5053335;28;20312;-82
2022/06/22 06:51:24;;;;;;;0.98;0.98;;;;;;;;;;5053448;28;20287;-81
2022/06/22 06:53:57;;;;;;;1.30;1.08;;;;;;;;;;5052377;28;20257;-82
2022/06/22 06:56:29;;;;;;;1.42;1.33;;;;;;;;;;5053453;28;20299;-81
2022/06/22 06:58:59;;;;;;;1.10;1.10;;;;;;;;;;5052679;28;20246;-80
2022/06/22 07:01:29;;;;;;;0.77;0.77;;;;;;;;;;5052806;28;20201;-81
2022/06/22 07:03:59;;;;;;;1.42;1.00;;;;;;;;;;5052769;28;20224;-80
2022/06/22 07:06:29;;;;;;;1.30;1.20;;;;;;;;;;5052867;28;20225;-81
2022/06/22 07:09:00;;;;;;;1.00;1.00;;;;;;;;;;5052813;28;20297;-80
2022/06/22 07:11:34;;;;;;;1.10;0.82;;;;;;;;;;5052588;28;20292;-81
2022/06/22 07:14:07;;;;;;;0.90;0.90;;;;;;;;;;5052252;28;20233;-81
2022/06/22 07:16:35;;;;;;;0.98;0.80;;;;;;;;;;5052459;28;20256;-81
2022/06/22 07:19:07;;;;;;;1.00;1.00;;;;;;;;;;5053162;28;20206;-81
2022/06/22 07:21:43;;;;;;;3.00;1.45;;;;;;;;;;5052312;28;20756;-80
2022/06/22 07:24:16;;;;;;;1.00;1.00;;;;;;;;;;5052877;28;20304;-81
2022/06/22 07:26:54;;;;;;;1.13;1.13;;;;;;;;;;5052207;28;20225;-81
2022/06/22 07:29:29;;;;;;;0.90;0.90;;;;;;;;;;5051530;28;20201;-81
2022/06/22 07:32:04;;;;;;;0.95;0.95;;;;;;;;;;5051794;28;20245;-82
2022/06/22 07:34:37;;;;;;;0.82;0.77;;;;;;;;;;5051515;28;20288;-81
2022/06/22 07:37:15;;;;;;;0.90;0.90;;;;;;;;;;5052328;28;20316;-81
2022/06/22 07:39:47;;;;;;;1.00;1.00;;;;;;;;;;5052014;28;20662;-81
2022/06/22 07:42:15;;;;;;;4.22;1.27;;;;;;;;;;5051440;28;20208;-80
2022/06/22 07:44:43;;;;;;;2.67;1.80;;;;;;;;;;5051937;28;20229;-81
2022/06/22 07:47:16;;;;;;;1.17;1.10;;;;;;;;;;5051343;28;20301;-81
2022/06/22 07:49:49;;;;;;;0.98;0.98;;;;;;;;;;5052364;28;20201;-81
2022/06/22 07:52:24;;;;;;;2.10;1.58;;;;;;;;;;5058806;28;20292;-82
2022/06/22 07:54:57;;;;;;;1.30;1.20;;;;;;;;;;5059704;28;20351;-82
2022/06/22 07:57:34;;;;;;;0.60;0.60;;;;;;;;;;5059499;28;20669;-82
2022/06/22 08:00:06;;;;;;;1.33;1.25;;;;;;;;;;5058603;28;20216;-82
2022/06/22 08:02:45;;;;;;;1.27;1.17;;;;;;;;;;5056206;28;20288;-81
2022/06/22 08:05:17;;;;;;;1.55;1.20;;;;;;;;;;5057963;28;20204;-82
2022/06/22 08:07:50;;;;;;;1.00;1.00;;;;;;;;;;5057761;28;20213;-81
2022/06/22 08:10:21;;;;;;;1.02;1.02;;;;;;;;;;5057338;28;20237;-82
2022/06/22 08:13:08;;;;;;;1.13;1.10;;;;;;;;;;5056332;28;20205;-82
2022/06/22 08:15:41;;;;;;;1.58;1.17;;;;;;;;;;5057076;28;20699;-81
2022/06/22 08:18:09;;;;;;;0.90;0.90;;;;;;;;;;5056690;28;20253;-82
2022/06/22 08:20:40;;;;;;;0.90;0.90;;;;;;;;;;5055286;28;20293;-82
2022/06/22 08:23:16;;;;;;;1.00;1.00;;;;;;;;;;5054945;28;20210;-82
2022/06/22 08:25:45;;;;;;;0.80;0.80;;;;;;;;;;5056351;28;20205;-82
2022/06/22 08:28:15;;;;;;;1.00;1.00;;;;;;;;;;5053614;28;20229;-82
2022/06/22 08:30:43;;;;;;;1.10;1.00;;;;;;;;;;5054927;28;20296;-81
2022/06/22 08:33:15;;;;;;;1.10;1.10;;;;;;;;;;5055994;28;20285;-81
2022/06/22 08:35:46;;;;;;;0.85;0.85;;;;;;;;;;5053979;28;20633;-81
2022/06/22 08:38:21;;;;;;;0.80;0.80;;;;;;;;;;5053195;28;20304;-82
2022/06/22 08:40:57;;;;;;;1.30;1.20;;;;;;;;;;5054908;28;20206;-81
2022/06/22 08:43:33;;;;;;;1.42;1.25;;;;;;;;;;5054967;28;20288;-83
2022/06/22 08:46:38;;;;;;;1.48;1.15;;;;;;;;;;5055392;28;20201;-81
2022/06/22 08:49:49;;;;;;;1.00;1.00;;;;;;;;;;5055858;28;20204;-83
2022/06/22 08:52:32;;;;;;;1.10;1.00;;;;;;;;;;5048415;28;20293;-82
2022/06/22 08:55:31;;;;;;;1.20;1.10;;;;;;;;;;5058876;28;20236;-82
2022/06/22 08:58:14;;;;;;;0.90;0.80;;;;;;;;;;5057959;28;20678;-81
2022/06/22 09:00:47;;;;;;;1.00;1.00;;;;;;;;;;5059058;28;20208;-82
2022/06/22 09:03:43;;;;;;;1.02;0.90;;;;;;;;;;5058625;28;20288;-83
2022/06/22 09:06:44;;;;;;;1.30;1.20;;;;;;;;;;5058814;28;20589;-81
2022/06/22 09:10:03;;;;;;;1.30;1.20;;;;;;;;;;5044103;28;20279;-83
2022/06/22 09:12:45;;;;;;;0.70;0.70;;;;;;;;;;5009508;28;20221;-81
2022/06/22 09:15:36;;;;;;;0.90;0.90;;;;;;;;;;5038136;28;20203;-82
2022/06/22 09:18:56;;;;;;;0.80;0.80;;;;;;;;;;5037803;28;20669;-82
2022/06/22 09:21:36;;;;;;;1.02;1.02;;;;;;;;;;5003882;28;20210;-82
2022/06/22 09:24:13;;;;;;;1.13;1.02;;;;;;;;;;5038165;28;20236;-82
2022/06/22 09:26:49;;;;;;;1.00;1.00;;;;;;;;;;5064745;22;20213;-81
2022/06/22 09:29:37;;;;;;;0.80;0.80;;;;;;;;;;5076099;28;20336;-81
2022/06/22 09:32:28;;;;;;;0.70;0.70;;;;;;;;;;5075489;28;20280;-81
2022/06/22 09:35:36;;;;;;;0.70;0.70;;;;;;;;;;5044806;28;20722;-82
2022/06/22 09:38:42;;;;;;;0.90;0.90;;;;;;;;;;5055722;28;20655;-81
2022/06/22 09:41:16;;;;;;;1.00;1.00;;;;;;;;;;5055708;28;20284;-81
2022/06/22 09:44:12;;;;;;;0.85;0.85;;;;;;;;;;5059318;28;20220;-81
2022/06/22 09:47:40;;;;;;;1.50;1.40;;;;;;;;;;5075740;28;20221;-80
2022/06/22 09:50:42;;;;;;;1.38;0.70;;;;;;;;;;5076096;28;20273;-81
2022/06/22 09:53:51;;;;;;;1.27;0.95;;;;;;;;;;5075318;28;20326;-81
2022/06/22 09:56:39;;;;;;;0.90;0.90;;;;;;;;;;5076027;28;20185;-80
2022/06/22 09:59:35;;;;;;;1.00;1.00;;;;;;;;;;5075400;28;20205;-79
2022/06/22 10:02:22;;;;;;;0.75;0.75;;;;;;;;;;5076119;28;20560;-78
2022/06/22 10:05:29;;;;;;;1.02;0.93;;;;;;;;;;5075601;28;20612;-80
2022/06/22 10:08:17;;;;;;;0.73;0.73;;;;;;;;;;5072532;28;20204;-78
2022/06/22 10:10:52;;;;;;;1.33;1.20;;;;;;;;;;5075115;28;20247;-80
2022/06/22 10:14:09;;;;;;;0.98;0.98;;;;;;;;;;5074547;28;20216;-81
2022/06/22 10:16:47;;;;;;;0.73;0.73;;;;;;;;;;5075256;28;20724;-79
2022/06/22 10:19:31;;;;;;;1.15;1.13;;;;;;;;;;5074777;28;20591;-79
2022/06/22 10:22:14;;;;;;;1.15;1.05;;;;;;;;;;5075286;28;20575;-81
2022/06/22 10:25:32;;;;;;;0.80;0.80;;;;;;;;;;5075090;28;20597;-79
2022/06/22 10:28:28;;;;;;;0.80;0.80;;;;;;;;;;5075118;28;20213;-81
2022/06/22 10:31:03;;;;;;;1.60;1.50;;;;;;;;;;5074255;28;20204;-81
2022/06/22 10:34:03;;;;;;;3.63;1.45;;;;;;;;;;5074965;28;20289;-82
2022/06/22 10:37:09;;;;;;;0.95;0.95;;;;;;;;;;5074843;28;20436;-84
2022/06/22 10:40:06;;;;;;;0.90;0.90;;;;;;;;;;5042149;28;20776;-80
2022/06/22 10:45:49;;;;;;;1.10;1.10;;;;;;;;;;5055407;28;20180;-80
2022/06/22 10:48:54;;;;;;;0.93;0.93;;;;;;;;;;5055200;28;20255;-81
2022/06/22 10:51:36;;;;;;;0.90;0.90;;;;;;;;;;5054604;28;20192;-81
2022/06/22 10:54:49;;;;;;;0.90;0.90;;;;;;;;;;5055214;28;20659;-82
2022/06/22 10:57:38;;;;;;;1.10;1.10;;;;;;;;;;5055915;28;20221;-79
2022/06/22 11:00:15;;;;;;;1.17;1.17;;;;;;;;;;5054317;28;20657;-81
2022/06/22 11:03:33;;;;;;;0.82;0.82;;;;;;;;;;5054893;28;20255;-81
2022/06/22 11:06:32;;;;;;;0.60;0.60;;;;;;;;;;5055462;28;20206;-79
2022/06/22 11:09:36;;;;;;;0.98;0.98;;;;;;;;;;5053745;28;20182;-80
2022/06/22 11:12:35;;;;;;;1.27;1.23;;;;;;;;;;5034172;28;20201;-79
2022/06/22 11:15:38;;;;;;;1.10;1.10;;;;;;;;;;5034164;28;20252;-81
2022/06/22 11:18:36;;;;;;;1.38;1.38;;;;;;;;;;5008801;28;20293;-79
2022/06/22 11:21:15;;;;;;;2.50;1.23;;;;;;;;;;5029284;28;20574;-79
2022/06/22 11:24:23;;;;;;;0.90;0.90;;;;;;;;;;5033688;28;20222;-79
2022/06/22 11:33:12;;;;;;;1.10;1.10;;;;;;;;;;5033830;28;20597;-82
2022/06/22 11:35:55;;;;;;;1.20;1.20;;;;;;;;;;5035138;28;20241;-80
2022/06/22 11:39:11;;;;;;;1.20;1.10;;;;;;;;;;5034021;28;20531;-79
2022/06/22 11:42:07;;;;;;;0.98;0.98;;;;;;;;;;5034122;28;20294;-81
2022/06/22 11:48:22;;;;;;;0.90;0.90;;;;;;;;;;5033962;28;20208;-81
2022/06/22 11:51:06;;;;;;;0.80;0.80;;;;;;;;;;5032459;28;20201;-82
2022/06/22 11:53:55;;;;;;;1.05;1.05;;;;;;;;;;5034861;28;20222;-82
2022/06/22 11:56:35;;;;;;;1.48;1.38;;;;;;;;;;5034999;28;20187;-80
2022/06/22 11:59:29;;;;;;;1.00;1.00;;;;;;;;;;5034544;28;20206;-81
2022/06/22 12:02:30;;;;;;;1.08;0.98;;;;;;;;;;5034312;28;20614;-80
2022/06/22 12:05:34;;;;;;;0.80;0.80;;;;;;;;;;5033659;28;20190;-81
2022/06/22 12:08:27;;;;;;;0.93;0.93;;;;;;;;;;5034687;28;20182;-80
2022/06/22 12:11:04;;;;;;;0.90;0.90;;;;;;;;;;5034439;28;20186;-80
2022/06/22 12:16:53;;;;;;;1.10;1.10;;;;;;;;;;5033879;28;20221;-81
2022/06/22 12:19:33;;;;;;;1.00;0.90;;;;;;;;;;5033990;28;20212;-81
2022/06/22 12:22:17;;;;;;;1.08;0.95;;;;;;;;;;5036571;28;20631;-80
2022/06/22 12:25:01;;;;;;;0.77;0.77;;;;;;;;;;5038863;28;20187;-81
2022/06/22 12:27:33;;;;;;;0.95;0.95;;;;;;;;;;5038064;28;20210;-79
2022/06/22 12:30:21;;;;;;;1.10;1.10;;;;;;;;;;5038019;28;20237;-80
2022/06/22 12:32:53;;;;;;;0.93;0.93;;;;;;;;;;5038767;28;20266;-81
2022/06/22 12:35:36;;;;;;;0.90;0.90;;;;;;;;;;5038965;28;20190;-82
2022/06/22 12:38:12;;;;;;;0.90;0.90;;;;;;;;;;5037968;28;20277;-80
2022/06/22 12:40:51;;;;;;;1.20;1.15;;;;;;;;;;5037956;28;20272;-80
2022/06/22 12:43:58;;;;;;;0.80;0.80;;;;;;;;;;5036868;28;20744;-80
2022/06/22 12:46:56;;;;;;;1.05;0.98;;;;;;;;;;5026856;28;20205;-82
2022/06/22 12:49:44;;;;;;;1.00;1.00;;;;;;;;;;5054952;22;20237;-81
2022/06/22 12:52:19;;;;;;;0.85;0.85;;;;;;;;;;5036059;28;20206;-81
2022/06/22 12:54:52;;;;;;;0.82;0.82;;;;;;;;;;5036782;28;20202;-83
2022/06/22 12:57:24;;;;;;;1.45;1.35;;;;;;;;;;5036659;28;20568;-84
2022/06/22 12:59:56;;;;;;;0.63;0.63;;;;;;;;;;5036876;28;20772;-84
2022/06/22 13:02:28;;;;;;;0.68;0.68;;;;;;;;;;5036122;28;20206;-82
2022/06/22 13:05:01;;;;;;;0.85;0.85;;;;;;;;;;5046834;22;20238;-81
2022/06/22 13:07:31;;;;;;;0.90;0.90;;;;;;;;;;5054893;28;20198;-81
2022/06/22 13:09:59;;;;;;;0.90;0.90;;;;;;;;;;5038575;28;20198;-79
2022/06/22 13:12:34;;;;;;;1.13;1.13;;;;;;;;;;5039079;28;20214;-81
2022/06/22 13:15:05;;;;;;;0.68;0.68;;;;;;;;;;5039779;28;20206;-82
2022/06/22 13:17:40;;;;;;;0.70;0.70;;;;;;;;;;5039175;28;20285;-81
2022/06/22 13:20:34;;;;;;;0.90;0.90;;;;;;;;;;5038429;28;20659;-81
2022/06/22 13:23:09;;;;;;;1.02;1.00;;;;;;;;;;5038803;28;20229;-81
2022/06/22 13:25:43;;;;;;;1.35;1.00;;;;;;;;;;5038344;28;20201;-80
2022/06/22 13:28:22;;;;;;;1.00;1.00;;;;;;;;;;5037264;28;20198;-78
2022/06/22 13:30:55;;;;;;;1.30;1.20;;;;;;;;;;5037589;28;20206;-80
2022/06/22 13:33:30;;;;;;;0.65;0.65;;;;;;;;;;5037668;28;20248;-82
2022/06/22 13:36:05;;;;;;;0.95;0.95;;;;;;;;;;5038191;28;20209;-81
2022/06/22 13:38:58;;;;;;;1.02;1.00;;;;;;;;;;5037132;28;20208;-80
2022/06/22 13:41:54;;;;;;;1.05;0.98;;;;;;;;;;5038132;28;20218;-80
2022/06/22 13:45:01;;;;;;;0.70;0.70;;;;;;;;;;5037987;28;20222;-79
2022/06/22 13:47:49;;;;;;;0.95;0.90;;;;;;;;;;5030138;28;20206;-81
2022/06/22 13:50:52;;;;;;;0.90;0.90;;;;;;;;;;5038549;28;20625;-80
2022/06/22 13:53:32;;;;;;;0.98;0.98;;;;;;;;;;5037008;28;20738;-81
2022/06/22 13:56:06;;;;;;;1.05;0.98;;;;;;;;;;5039087;28;20238;-82
2022/06/22 13:58:38;;;;;;;1.08;1.08;;;;;;;;;;5039077;28;20202;-81
2022/06/22 14:01:13;;;;;;;1.55;1.45;;;;;;;;;;5037821;28;20276;-82
2022/06/22 14:03:45;;;;;;;1.20;1.10;;;;;;;;;;5036728;28;20230;-82
2022/06/22 14:06:16;;;;;;;1.00;1.00;;;;;;;;;;5037868;28;20206;-81
2022/06/22 14:09:00;;;;;;;1.05;0.90;;;;;;;;;;5038122;28;20206;-81
2022/06/22 14:11:39;;;;;;;1.40;1.30;;;;;;;;;;5037857;28;20190;-79
2022/06/22 14:14:20;;;;;;;0.57;0.57;;;;;;;;;;5037333;28;20651;-81
2022/06/22 14:16:55;;;;;;;0.80;0.80;;;;;;;;;;5036506;28;20256;-81
2022/06/22 14:19:28;;;;;;;1.02;1.02;;;;;;;;;;5037114;28;20634;-80
2022/06/22 14:21:58;;;;;;;1.75;0.85;;;;;;;;;;5037054;28;20773;-81
2022/06/22 14:24:31;;;;;;;0.70;0.70;;;;;;;;;;5037044;28;20733;-81
2022/06/22 14:27:26;;;;;;;0.93;0.93;;;;;;;;;;5037692;28;20267;-82
2022/06/22 14:30:07;;;;;;;1.00;1.00;;;;;;;;;;5036296;28;20248;-82
2022/06/22 14:32:56;;;;;;;0.90;0.90;;;;;;;;;;5036478;28;20229;-81
2022/06/22 14:35:36;;;;;;;0.60;0.60;;;;;;;;;;5037570;28;20655;-80
2022/06/22 14:38:17;;;;;;;0.98;0.98;;;;;;;;;;5037281;28;20202;-79
2022/06/22 14:41:15;;;;;;;0.98;0.98;;;;;;;;;;5037567;28;20756;-79
2022/06/22 14:43:52;;;;;;;0.90;0.90;;;;;;;;;;5036206;28;20284;-82
2022/06/22 14:46:23;;;;;;;1.00;1.00;;;;;;;;;;5036157;28;20202;-80
2022/06/22 14:48:58;;;;;;;0.85;0.85;;;;;;;;;;5037104;28;20244;-80
2022/06/22 14:51:38;;;;;;;0.70;0.70;;;;;;;;;;5037845;28;20198;-79
2022/06/22 14:54:17;;;;;;;1.83;0.70;;;;;;;;;;5037900;28;20232;-80
2022/06/22 14:56:54;;;;;;;0.80;0.80;;;;;;;;;;5038467;28;20231;-80
2022/06/22 14:59:28;;;;;;;0.80;0.80;;;;;;;;;;5037435;28;20206;-80
2022/06/22 15:02:00;;;;;;;0.63;0.63;;;;;;;;;;5037294;28;20294;-80
2022/06/22 15:04:38;;;;;;;0.88;0.88;;;;;;;;;;5037445;28;20238;-80
2022/06/22 15:07:16;;;;;;;0.90;0.90;;;;;;;;;;5017417;28;20294;-80
2022/06/22 15:09:50;;;;;;;0.80;0.80;;;;;;;;;;5017035;28;20203;-79
2022/06/22 15:15:30;;;;;;;0.90;0.90;;;;;;;;;;5017721;28;20229;-79
2022/06/22 15:18:12;;;;;;;0.80;0.80;;;;;;;;;;5016992;28;20248;-80
2022/06/22 15:20:45;;;;;;;0.90;0.90;;;;;;;;;;5017521;28;20207;-80
2022/06/22 15:23:18;;;;;;;0.68;0.68;;;;;;;;;;5017206;28;20227;-79
2022/06/22 15:25:57;;;;;;;1.00;1.00;;;;;;;;;;5017312;28;20202;-77
2022/06/22 15:28:36;;;;;;;1.27;1.13;;;;;;;;;;5015501;28;20213;-78
2022/06/22 15:31:33;;;;;;;1.13;1.13;;;;;;;;;;5016201;28;20209;-78
2022/06/22 15:34:41;;;;;;;0.90;0.90;;;;;;;;;;5016307;28;20471;-80
2022/06/22 15:37:40;;;;;;;1.00;1.00;;;;;;;;;;5016001;28;20209;-79
2022/06/22 15:40:28;;;;;;;0.80;0.80;;;;;;;;;;5012639;28;20660;-78
2022/06/22 15:43:15;;;;;;;0.82;0.80;;;;;;;;;;5015276;28;20231;-79
2022/06/22 15:45:58;;;;;;;1.17;1.17;;;;;;;;;;5016244;28;20207;-79
2022/06/22 15:48:34;;;;;;;0.88;0.88;;;;;;;;;;5015624;28;20253;-78
2022/06/22 15:51:08;;;;;;;1.00;1.00;;;;;;;;;;5015913;28;20642;-78
2022/06/22 15:53:42;;;;;;;1.00;1.00;;;;;;;;;;5015291;28;20265;-78
2022/06/22 16:00:48;;;;;;;1.00;1.00;;;;;;;;;;4949896;28;20287;-81
2022/06/22 18:24:56;;;;;;;1.10;1.10;;;;;;;;;;4821975;29;20245;-79
2022/06/22 19:05:41;;;;;;;1.17;1.08;;;;;;;;;;5072679;22;20225;-82
2022/06/22 19:08:13;;;;;;;1.65;1.00;;;;;;;;;;5075447;28;20657;-81
2022/06/22 19:10:42;;;;;;;1.00;1.00;;;;;;;;;;5075040;28;20229;-81
2022/06/22 19:13:13;;;;;;;2.00;1.85;;;;;;;;;;5074576;28;20231;-80
2022/06/22 19:15:48;;;;;;;1.10;1.10;;;;;;;;;;5075682;28;20224;-81
2022/06/22 19:18:39;;;;;;;1.17;1.17;;;;;;;;;;5074632;28;20196;-81
2022/06/22 19:21:19;;;;;;;1.00;1.00;;;;;;;;;;5074849;28;20321;-81